createdAt,value
2023-04-02T00:05:19.871Z,7.12
2023-04-02T00:10:35.562Z,7.03
2023-04-02T00:15:42.839Z,6.98
2023-04-02T00:21:14.048Z,6.93
2023-04-02T00:26:27.008Z,6.83
2023-04-02T00:31:33.322Z,6.83
2023-04-02T00:36:38.053Z,6.77
2023-04-02T00:41:47.016Z,6.75
2023-04-02T00:46:51.708Z,6.81
2023-04-02T00:52:02.307Z,6.81
2023-04-02T00:57:22.241Z,6.81
2023-04-02T01:02:33.097Z,6.82
2023-04-02T01:08:04.891Z,6.83
2023-04-02T01:13:42.443Z,6.86
2023-04-02T01:19:18.569Z,6.95
2023-04-02T01:24:30.200Z,7.02
2023-04-02T01:30:00.855Z,7.06
2023-04-02T01:35:06.193Z,7.03
2023-04-02T01:40:54.882Z,7.01
2023-04-02T01:46:00.116Z,7.02
2023-04-02T01:51:08.538Z,7.07
2023-04-02T01:56:12.042Z,6.99
2023-04-02T02:01:23.187Z,7.00
2023-04-02T02:06:27.839Z,7.02
2023-04-02T02:11:34.037Z,7.04
2023-04-02T02:16:42.454Z,7.03
2023-04-02T02:22:05.830Z,7.14
2023-04-02T02:27:24.312Z,7.21
2023-04-02T02:32:32.372Z,7.14
2023-04-02T02:37:44.379Z,7.03
2023-04-02T02:43:02.379Z,6.92
2023-04-02T02:48:14.350Z,6.86
2023-04-02T02:53:25.019Z,6.86
2023-04-02T02:58:34.560Z,6.92
2023-04-02T03:03:39.336Z,6.86
2023-04-02T03:09:15.281Z,6.86
2023-04-02T03:14:52.960Z,6.72
2023-04-02T03:20:22.537Z,6.78
2023-04-02T03:25:37.672Z,6.83
2023-04-02T03:31:03.316Z,6.76
2023-04-02T03:36:31.867Z,6.70
2023-04-02T03:41:47.112Z,6.71
2023-04-02T03:47:01.862Z,6.73
2023-04-02T03:52:13.868Z,6.70
2023-04-02T03:57:33.477Z,6.72
2023-04-02T04:02:57.810Z,6.68
2023-04-02T04:08:07.850Z,6.69
2023-04-02T04:13:22.012Z,6.71
2023-04-02T04:18:57.475Z,6.70
2023-04-02T04:24:24.571Z,6.65
2023-04-02T04:29:45.861Z,6.58
2023-04-02T04:34:56.987Z,6.63
2023-04-02T04:40:21.494Z,6.54
2023-04-02T04:45:56.915Z,6.47
2023-04-02T04:51:15.942Z,6.37
2023-04-02T04:56:29.098Z,6.42
2023-04-02T05:16:59.547Z,6.58
2023-04-02T05:22:21.195Z,6.60
2023-04-02T05:34:27.933Z,6.61
2023-04-02T05:39:33.314Z,6.65
2023-04-02T05:45:13.886Z,6.63
2023-04-02T05:50:37.997Z,6.64
2023-04-02T05:56:17.046Z,6.70
2023-04-02T06:11:28.095Z,6.66
2023-04-02T06:41:13.450Z,6.83
2023-04-02T06:46:42.857Z,6.92
2023-04-02T07:06:20.616Z,6.69
2023-04-02T07:26:07.828Z,6.72
2023-04-02T07:31:34.100Z,6.52
2023-04-02T07:36:37.989Z,6.57
2023-04-02T07:41:57.047Z,6.66
2023-04-02T07:47:01.197Z,6.89
2023-04-02T08:06:21.602Z,7.09
2023-04-02T08:18:53.053Z,7.43
2023-04-02T08:23:57.158Z,7.39
2023-04-02T08:29:00.908Z,7.50
2023-04-02T08:34:14.065Z,7.19
2023-04-02T08:39:17.565Z,7.35
2023-04-02T08:45:24.260Z,7.12
2023-04-02T08:50:35.263Z,6.92
2023-04-02T08:56:10.333Z,6.89
2023-04-02T09:01:47.645Z,6.89
2023-04-02T09:29:16.894Z,6.86
2023-04-02T09:34:31.631Z,6.93
2023-04-02T09:48:06.993Z,7.20
2023-04-02T09:53:51.008Z,7.26
2023-04-02T09:59:13.181Z,7.54
2023-04-02T10:05:20.924Z,7.87
2023-04-02T10:10:44.858Z,9.68
2023-04-02T10:16:11.536Z,10.11
2023-04-02T10:22:47.097Z,9.89
2023-04-02T10:28:46.259Z,8.64
2023-04-02T10:34:13.012Z,11.38
2023-04-02T10:39:19.053Z,11.45
2023-04-02T10:44:43.971Z,9.56
2023-04-02T10:50:50.081Z,10.89
2023-04-02T10:56:05.351Z,9.92
2023-04-02T11:01:17.911Z,9.60
2023-04-02T11:06:45.366Z,10.98
2023-04-02T11:12:00.484Z,9.60
2023-04-02T11:17:04.706Z,10.66
2023-04-02T11:22:34.220Z,10.25
2023-04-02T11:27:39.546Z,9.21
2023-04-02T11:32:51.660Z,10.99
2023-04-02T11:39:18.695Z,10.24
2023-04-02T11:44:24.554Z,9.48
2023-04-02T11:49:41.488Z,10.57
2023-04-02T11:55:42.157Z,9.21
2023-04-02T12:00:54.929Z,8.70
2023-04-02T12:06:26.737Z,10.30
2023-04-02T12:12:47.913Z,9.28
2023-04-02T12:18:14.798Z,8.50
2023-04-02T12:24:00.331Z,8.33
2023-04-02T12:29:29.698Z,8.50
2023-04-02T12:34:35.467Z,10.69
2023-04-02T12:40:57.425Z,10.04
2023-04-02T12:53:37.935Z,8.75
2023-04-02T12:59:23.676Z,8.47
2023-04-02T13:04:27.949Z,8.36
2023-04-02T13:09:42.004Z,8.41
2023-04-02T13:14:46.646Z,8.38
2023-04-02T13:34:32.714Z,7.82
2023-04-02T13:39:38.331Z,7.80
2023-04-02T13:44:43.586Z,7.73
2023-04-02T13:49:48.948Z,7.68
2023-04-02T13:55:00.343Z,7.66
2023-04-02T14:00:06.769Z,7.74
2023-04-02T14:05:24.591Z,7.76
2023-04-02T14:10:54.741Z,7.80
2023-04-02T14:16:28.253Z,7.88
2023-04-02T14:28:58.278Z,7.90
2023-04-02T14:34:54.389Z,7.96
2023-04-02T14:40:32.440Z,8.05
2023-04-02T14:52:42.749Z,8.13
2023-04-02T14:58:10.407Z,8.25
2023-04-02T15:10:49.546Z,8.54
2023-04-02T15:16:27.141Z,8.51
2023-04-02T15:29:00.453Z,8.31
2023-04-02T15:50:07.258Z,7.72
2023-04-02T15:55:54.192Z,7.60
2023-04-02T16:02:24.866Z,7.52
2023-04-02T16:08:18.455Z,7.41
2023-04-02T16:13:37.458Z,7.39
2023-04-02T16:19:16.681Z,7.77
2023-04-02T16:24:21.070Z,8.34
2023-04-02T16:29:55.341Z,9.52
2023-04-02T16:35:42.358Z,10.90
2023-04-02T16:41:19.626Z,11.60
2023-04-02T16:46:54.437Z,11.87
2023-04-02T16:52:32.318Z,11.70
2023-04-02T16:57:56.050Z,11.36
2023-04-02T17:03:40.369Z,10.92
2023-04-02T17:09:18.080Z,10.13
2023-04-02T17:14:45.761Z,8.92
2023-04-02T17:19:56.773Z,7.82
2023-04-02T17:39:28.817Z,5.54
2023-04-02T17:44:49.587Z,5.18
2023-04-02T17:50:32.335Z,4.91
2023-04-02T17:56:06.001Z,4.67
2023-04-02T18:15:47.746Z,4.09
2023-04-02T18:21:23.226Z,3.94
2023-04-02T18:27:01.450Z,3.83
2023-04-02T18:33:07.843Z,3.69
2023-04-02T18:39:18.649Z,3.59
2023-04-02T18:44:58.787Z,3.48
2023-04-02T18:50:20.192Z,3.36
2023-04-02T18:55:32.367Z,3.29
2023-04-02T19:00:58.255Z,3.21
2023-04-02T19:20:44.898Z,2.89
2023-04-02T19:31:09.340Z,2.77
2023-04-02T19:36:28.836Z,2.68
2023-04-02T19:41:44.625Z,2.61
2023-04-02T19:47:17.418Z,2.54
2023-04-02T19:52:22.716Z,2.47
2023-04-02T20:12:17.016Z,5.07
2023-04-02T20:24:24.900Z,3.40
2023-04-02T20:29:57.451Z,2.90
2023-04-02T20:35:03.366Z,2.54
2023-04-02T20:40:09.161Z,2.38
2023-04-02T20:45:13.277Z,4.38
2023-04-02T20:50:18.195Z,5.67
2023-04-02T20:55:22.132Z,4.23
2023-04-02T21:00:26.046Z,3.25
2023-04-02T21:05:29.854Z,2.68
2023-04-02T21:10:33.945Z,2.32
2023-04-02T21:15:44.716Z,3.89
2023-04-02T21:28:34.866Z,3.80
2023-04-02T21:34:05.400Z,2.87
2023-04-02T21:44:36.186Z,1.99
2023-04-02T21:49:40.768Z,3.08
2023-04-02T21:55:42.528Z,5.82
2023-04-02T22:00:46.570Z,4.83
2023-04-02T22:05:51.097Z,3.43
2023-04-02T22:10:55.258Z,2.61
2023-04-02T22:23:05.874Z,2.91
2023-04-02T22:35:31.729Z,5.11
2023-04-02T22:40:51.017Z,3.45
2023-04-02T22:45:54.597Z,2.48
2023-04-02T22:55:27.363Z,2.16
2023-04-02T23:25:21.409Z,1.68
2023-04-02T23:41:51.824Z,1.72
2023-04-02T23:46:56.113Z,1.39
2023-04-02T23:51:59.664Z,3.66
